createdAt,value
2022-11-25T00:01:43.285Z,100678.31
2022-11-25T00:04:12.547Z,100681.88
2022-11-25T00:06:41.772Z,100722.19
2022-11-25T00:09:13.911Z,100653.75
2022-11-25T00:11:45.414Z,100760.66
2022-11-25T00:14:16.777Z,100752.41
2022-11-25T00:16:48.624Z,100669.56
2022-11-25T00:19:18.548Z,100675.09
2022-11-25T00:21:47.888Z,100639.72
2022-11-25T00:24:18.229Z,100689.53
2022-11-25T00:26:49.028Z,100602.38
2022-11-25T00:29:18.435Z,100654.47
2022-11-25T00:31:47.728Z,100652.63
2022-11-25T00:34:17.151Z,100672.97
2022-11-25T00:36:46.337Z,100468.41
2022-11-25T00:39:17.032Z,100632.75
2022-11-25T00:42:05.942Z,100716.66
2022-11-25T00:44:38.960Z,100665.97
2022-11-25T00:47:10.971Z,100540.63
2022-11-25T00:49:41.056Z,100484.13
2022-11-25T00:52:12.362Z,100694.75
2022-11-25T00:54:41.596Z,100641.59
2022-11-25T00:57:12.372Z,100711.19
2022-11-25T00:59:41.805Z,100685.88
2022-11-25T01:02:13.115Z,100705.31
2022-11-25T01:04:42.519Z,100621.44
2022-11-25T01:07:11.823Z,100535.16
2022-11-25T01:09:41.260Z,100569.25
2022-11-25T01:12:12.049Z,100671.09
2022-11-25T01:14:41.717Z,100621.94
2022-11-25T01:17:10.980Z,100553.53
2022-11-25T01:19:40.864Z,100636.91
2022-11-25T01:22:11.171Z,100670.16
2022-11-25T01:24:40.412Z,100496.84
2022-11-25T01:27:11.263Z,100542.78
2022-11-25T01:29:42.148Z,100634.97
2022-11-25T01:32:11.405Z,100498.56
2022-11-25T01:34:40.677Z,100623.63
2022-11-25T01:37:09.903Z,100570.56
2022-11-25T01:39:40.215Z,100537.53
2022-11-25T01:42:11.008Z,100547.88
2022-11-25T01:44:44.257Z,100562.66
2022-11-25T01:47:17.387Z,100635.97
2022-11-25T01:49:50.990Z,100582.97
2022-11-25T01:52:25.583Z,100557.78
2022-11-25T01:54:58.048Z,100647.00
2022-11-25T01:57:34.125Z,100584.03
2022-11-25T02:00:06.412Z,100485.09
2022-11-25T02:02:36.251Z,100615.63
2022-11-25T02:05:09.918Z,100462.47
2022-11-25T02:07:41.102Z,100456.59
2022-11-25T02:10:14.876Z,100625.31
2022-11-25T02:12:47.848Z,100573.88
2022-11-25T02:15:18.887Z,100555.63
2022-11-25T02:17:48.423Z,100517.03
2022-11-25T02:20:19.492Z,100408.72
2022-11-25T02:22:59.616Z,100592.16
2022-11-25T02:25:33.114Z,100582.09
2022-11-25T02:28:06.799Z,100470.97
2022-11-25T02:30:36.110Z,100518.50
2022-11-25T02:33:05.856Z,100402.53
2022-11-25T02:35:37.567Z,100457.66
2022-11-25T02:38:11.600Z,100602.16
2022-11-25T02:40:48.113Z,100543.06
2022-11-25T02:43:18.291Z,100438.91
2022-11-25T02:45:57.551Z,100438.13
2022-11-25T02:48:52.722Z,100415.25
2022-11-25T02:51:18.334Z,100518.13
2022-11-25T02:53:47.845Z,100513.13
2022-11-25T02:56:19.451Z,100393.94
2022-11-25T02:58:48.648Z,100500.00
2022-11-25T03:01:17.813Z,100548.94
2022-11-25T03:03:47.037Z,100539.47
2022-11-25T03:06:16.293Z,100535.88
2022-11-25T03:08:45.388Z,100541.69
2022-11-25T03:11:14.537Z,100525.44
2022-11-25T03:13:45.202Z,100499.47
2022-11-25T03:16:14.500Z,100509.66
2022-11-25T03:18:43.721Z,100518.38
2022-11-25T03:21:12.815Z,100505.66
2022-11-25T03:23:41.988Z,100512.47
2022-11-25T03:26:11.122Z,100515.13
2022-11-25T03:28:40.406Z,100508.00
2022-11-25T03:31:14.227Z,100512.97
2022-11-25T03:33:43.476Z,100499.75
2022-11-25T03:36:12.757Z,100504.22
2022-11-25T03:38:41.992Z,100475.59
2022-11-25T03:41:11.188Z,100505.66
2022-11-25T03:43:42.704Z,100498.72
2022-11-25T03:46:13.423Z,100489.06
2022-11-25T03:48:42.780Z,100481.78
2022-11-25T03:51:12.237Z,100478.81
2022-11-25T03:53:41.383Z,100458.88
2022-11-25T03:56:10.737Z,100434.84
2022-11-25T03:58:39.978Z,100417.81
2022-11-25T04:01:16.376Z,100431.22
2022-11-25T04:03:47.119Z,100433.41
2022-11-25T04:06:16.576Z,100470.00
2022-11-25T04:08:46.212Z,100465.44
2022-11-25T04:11:15.484Z,100412.63
2022-11-25T04:13:43.960Z,100458.72
2022-11-25T04:16:22.313Z,100405.00
2022-11-25T04:18:52.968Z,100431.66
2022-11-25T04:21:22.265Z,100436.97
2022-11-25T04:23:51.423Z,100373.22
2022-11-25T04:26:20.608Z,100424.13
2022-11-25T04:28:51.097Z,100420.09
2022-11-25T04:31:21.813Z,100404.66
2022-11-25T04:33:52.935Z,100328.34
2022-11-25T04:36:22.172Z,100399.06
2022-11-25T04:38:52.658Z,100366.31
2022-11-25T04:41:24.502Z,100317.03
2022-11-25T04:43:53.709Z,100416.91
2022-11-25T04:46:26.813Z,100397.72
2022-11-25T04:48:57.488Z,100302.84
2022-11-25T04:51:26.628Z,100362.69
2022-11-25T04:53:55.808Z,100359.00
2022-11-25T04:56:24.949Z,100367.88
2022-11-25T04:59:20.502Z,100341.81
2022-11-25T05:01:49.844Z,100323.75
2022-11-25T05:04:20.635Z,100364.97
2022-11-25T05:06:51.953Z,100364.22
2022-11-25T05:09:21.137Z,100357.41
2022-11-25T05:11:50.230Z,100359.13
2022-11-25T05:14:19.400Z,100360.81
2022-11-25T05:16:48.549Z,100343.22
2022-11-25T05:19:18.103Z,100325.03
2022-11-25T05:21:50.078Z,100315.44
2022-11-25T05:24:19.210Z,100328.28
2022-11-25T05:26:48.526Z,100345.09
2022-11-25T05:29:17.735Z,100333.84
2022-11-25T05:31:46.994Z,100319.13
2022-11-25T05:34:16.144Z,100274.78
2022-11-25T05:36:45.319Z,100334.78
2022-11-25T05:39:16.010Z,100329.03
2022-11-25T05:41:45.202Z,100328.66
2022-11-25T05:44:18.393Z,100324.72
2022-11-25T05:46:50.664Z,100331.09
2022-11-25T05:49:21.385Z,100317.44
2022-11-25T05:51:50.583Z,100322.03
2022-11-25T05:54:21.256Z,100303.63
2022-11-25T05:56:50.501Z,100309.03
2022-11-25T05:59:19.613Z,100275.97
2022-11-25T06:01:48.757Z,100307.56
2022-11-25T06:04:17.811Z,100308.34
2022-11-25T06:06:47.008Z,100310.13
2022-11-25T06:09:16.145Z,100277.28
2022-11-25T06:11:46.822Z,100290.56
2022-11-25T06:14:18.034Z,100285.38
2022-11-25T06:16:47.189Z,100247.06
2022-11-25T06:19:16.276Z,100217.16
2022-11-25T06:21:45.433Z,100279.03
2022-11-25T06:24:14.503Z,100253.22
2022-11-25T06:26:43.635Z,100263.41
2022-11-25T06:29:14.284Z,100233.72
2022-11-25T06:31:43.525Z,100256.84
2022-11-25T06:34:12.750Z,100253.69
2022-11-25T06:36:41.818Z,100237.69
2022-11-25T06:39:11.150Z,100236.59
2022-11-25T06:41:40.322Z,100237.72
2022-11-25T06:44:09.542Z,100219.50
2022-11-25T06:46:40.267Z,100233.38
2022-11-25T06:49:11.656Z,100229.72
2022-11-25T06:51:40.857Z,100227.91
2022-11-25T06:54:10.808Z,100198.00
2022-11-25T06:56:46.319Z,100217.38
2022-11-25T06:59:17.925Z,100189.25
2022-11-25T07:01:50.222Z,100117.00
2022-11-25T07:04:19.658Z,100169.88
2022-11-25T07:06:50.699Z,100200.78
2022-11-25T07:09:20.245Z,100196.13
2022-11-25T07:11:50.187Z,100209.81
2022-11-25T07:14:20.391Z,100205.00
2022-11-25T07:16:51.334Z,100203.47
2022-11-25T07:19:21.090Z,100209.22
2022-11-25T07:21:50.264Z,100199.09
2022-11-25T07:24:20.389Z,100198.09
2022-11-25T07:26:49.431Z,100188.16
2022-11-25T07:29:44.421Z,100191.97
2022-11-25T07:32:10.865Z,100200.91
2022-11-25T07:34:40.236Z,100148.16
2022-11-25T07:37:09.893Z,100192.25
2022-11-25T07:39:39.317Z,100182.09
2022-11-25T07:42:08.591Z,100185.03
2022-11-25T07:44:37.633Z,100189.28
2022-11-25T07:47:06.907Z,100170.88
2022-11-25T07:49:47.355Z,100179.41
2022-11-25T07:52:16.482Z,100175.75
2022-11-25T07:54:45.773Z,100171.00
2022-11-25T07:57:15.123Z,100177.50
2022-11-25T07:59:44.178Z,100170.28
2022-11-25T08:02:13.333Z,100170.28
2022-11-25T08:04:43.968Z,100181.69
2022-11-25T08:07:13.515Z,100182.41
2022-11-25T08:09:42.946Z,100175.41
2022-11-25T08:12:12.215Z,100159.09
2022-11-25T08:14:41.313Z,100139.31
2022-11-25T08:17:10.647Z,100157.84
2022-11-25T08:19:40.677Z,100175.66
2022-11-25T08:22:11.331Z,100159.69
2022-11-25T08:24:40.567Z,100163.09
2022-11-25T08:27:09.751Z,100158.66
2022-11-25T08:29:40.857Z,100165.53
2022-11-25T08:32:12.847Z,100126.06
2022-11-25T08:34:42.021Z,100130.28
2022-11-25T08:37:12.765Z,100140.56
2022-11-25T08:39:52.594Z,100151.78
2022-11-25T08:42:22.579Z,100138.44
2022-11-25T08:44:56.013Z,100131.13
2022-11-25T08:47:25.479Z,100139.56
2022-11-25T08:49:55.238Z,100153.63
2022-11-25T08:52:27.094Z,100147.28
2022-11-25T08:54:56.558Z,100117.28
2022-11-25T08:57:25.678Z,100147.88
2022-11-25T08:59:54.735Z,100128.78
2022-11-25T09:02:23.943Z,100142.06
2022-11-25T09:04:53.130Z,100133.16
2022-11-25T09:07:26.100Z,100132.28
2022-11-25T09:10:01.005Z,100128.66
2022-11-25T09:12:30.326Z,100135.06
2022-11-25T09:15:00.180Z,100118.16
2022-11-25T09:17:29.310Z,100134.63
2022-11-25T09:19:58.463Z,100129.13
2022-11-25T09:22:27.697Z,100138.06
2022-11-25T09:24:57.076Z,100106.53
2022-11-25T09:27:45.591Z,100119.56
2022-11-25T09:30:15.377Z,100120.72
2022-11-25T09:32:44.770Z,100124.59
2022-11-25T09:35:14.865Z,100120.25
2022-11-25T09:37:44.125Z,100091.06
2022-11-25T09:40:20.384Z,100101.41
2022-11-25T09:43:14.582Z,100107.88
2022-11-25T09:46:10.084Z,100114.91
2022-11-25T09:49:00.250Z,100093.00
2022-11-25T09:51:41.039Z,100084.13
2022-11-25T09:54:19.581Z,100104.97
2022-11-25T09:56:53.376Z,100102.34
2022-11-25T09:59:33.963Z,100066.88
2022-11-25T10:02:06.802Z,100079.09
2022-11-25T10:04:43.561Z,100100.91
2022-11-25T10:07:21.745Z,100100.91
2022-11-25T10:09:50.900Z,100060.53
2022-11-25T10:12:26.793Z,100098.75
2022-11-25T10:15:02.591Z,100100.66
2022-11-25T10:17:40.476Z,100100.47
2022-11-25T10:20:16.929Z,100099.88
2022-11-25T10:22:49.476Z,100107.50
2022-11-25T10:25:20.618Z,100081.00
2022-11-25T10:27:54.819Z,100106.03
2022-11-25T10:30:27.560Z,100055.81
2022-11-25T10:33:05.808Z,100081.81
2022-11-25T10:35:40.439Z,100098.72
2022-11-25T10:38:19.049Z,100111.41
2022-11-25T10:40:53.315Z,100115.13
2022-11-25T10:43:25.009Z,100092.16
2022-11-25T10:46:08.912Z,100118.47
2022-11-25T10:48:56.374Z,100109.94
2022-11-25T10:51:41.629Z,100099.81
2022-11-25T10:54:14.536Z,100112.59
2022-11-25T10:56:53.770Z,100116.44
2022-11-25T10:59:31.709Z,100115.88
2022-11-25T11:02:21.232Z,100104.84
2022-11-25T11:04:59.304Z,100106.31
2022-11-25T11:07:30.961Z,100112.41
2022-11-25T11:10:18.022Z,100083.69
2022-11-25T11:12:57.180Z,100109.91
2022-11-25T11:15:29.347Z,100106.78
2022-11-25T11:18:01.509Z,100091.53
2022-11-25T11:20:31.891Z,100053.44
2022-11-25T11:23:08.862Z,100097.34
2022-11-25T11:25:40.121Z,100106.09
2022-11-25T11:28:27.802Z,100099.69
2022-11-25T11:31:00.620Z,100060.84
2022-11-25T11:33:42.004Z,100080.88
2022-11-25T11:36:36.434Z,100101.53
2022-11-25T11:39:24.039Z,100092.97
2022-11-25T11:42:02.177Z,100076.44
2022-11-25T11:44:42.112Z,100093.47
2022-11-25T11:47:25.094Z,100094.94
2022-11-25T11:50:24.368Z,100097.53
2022-11-25T11:52:59.674Z,100099.56
2022-11-25T11:56:05.685Z,100072.72
2022-11-25T11:58:51.494Z,100076.34
2022-11-25T12:01:39.798Z,100098.75
2022-11-25T12:04:19.427Z,100094.00
2022-11-25T12:07:02.059Z,100037.88
2022-11-25T12:09:34.573Z,100085.16
2022-11-25T12:12:08.659Z,100059.88
2022-11-25T12:14:44.253Z,100087.41
2022-11-25T12:17:20.425Z,100092.94
2022-11-25T12:19:57.727Z,100105.84
2022-11-25T12:22:34.399Z,100053.66
2022-11-25T12:25:11.693Z,100104.41
2022-11-25T12:27:47.182Z,100073.75
2022-11-25T12:30:19.719Z,100064.75
2022-11-25T12:32:59.890Z,100069.44
2022-11-25T12:35:45.596Z,100091.06
2022-11-25T12:38:25.706Z,100066.22
2022-11-25T12:41:05.223Z,100090.25
2022-11-25T12:43:41.900Z,100074.97
2022-11-25T12:46:21.048Z,100106.41
2022-11-25T12:48:50.443Z,100073.13
2022-11-25T12:51:30.481Z,100083.63
2022-11-25T12:54:17.966Z,100099.03
2022-11-25T12:57:03.800Z,100099.28
2022-11-25T12:59:50.716Z,100096.25
2022-11-25T13:02:48.771Z,100103.44
2022-11-25T13:05:47.423Z,100095.63
2022-11-25T13:08:29.690Z,100109.84
2022-11-25T13:11:18.017Z,100095.41
2022-11-25T13:13:55.667Z,100091.38
2022-11-25T13:16:28.940Z,100098.66
2022-11-25T13:18:58.727Z,100090.22
2022-11-25T13:21:29.570Z,100101.13
2022-11-25T13:24:00.466Z,100119.22
2022-11-25T13:26:51.730Z,100071.91
2022-11-25T13:30:03.106Z,100118.16
2022-11-25T13:32:38.358Z,100130.50
2022-11-25T13:35:33.948Z,100130.94
2022-11-25T13:38:03.211Z,100140.81
2022-11-25T13:40:41.874Z,100149.94
2022-11-25T13:43:27.335Z,100113.41
2022-11-25T13:45:57.636Z,100143.69
2022-11-25T13:48:30.350Z,100138.44
2022-11-25T13:51:18.712Z,100151.09
2022-11-25T13:53:55.709Z,100126.44
2022-11-25T13:56:31.225Z,100162.38
2022-11-25T13:59:37.454Z,100165.59
2022-11-25T14:02:45.706Z,100165.47
2022-11-25T14:05:59.299Z,100159.34
2022-11-25T14:08:40.382Z,100155.16
2022-11-25T14:11:44.798Z,100170.53
2022-11-25T14:14:43.964Z,100051.50
2022-11-25T14:17:32.009Z,100037.19
2022-11-25T14:20:19.079Z,100175.22
2022-11-25T14:23:24.487Z,100168.09
2022-11-25T14:25:55.919Z,100172.25
2022-11-25T14:28:33.974Z,100167.88
2022-11-25T14:31:13.180Z,100168.53
2022-11-25T14:33:53.495Z,100167.31
2022-11-25T14:36:26.525Z,100148.06
2022-11-25T14:39:01.460Z,100161.13
2022-11-25T14:41:37.007Z,100176.59
2022-11-25T14:44:07.623Z,100173.84
2022-11-25T14:46:53.130Z,100152.88
2022-11-25T14:49:45.262Z,100134.88
2022-11-25T14:52:12.802Z,100185.44
2022-11-25T14:54:43.954Z,100188.16
2022-11-25T14:57:14.557Z,100189.94
2022-11-25T14:59:45.775Z,100195.59
2022-11-25T15:02:28.698Z,100190.13
2022-11-25T15:05:18.114Z,100172.31
2022-11-25T15:07:57.874Z,100193.94
2022-11-25T15:10:35.634Z,100199.69
2022-11-25T15:13:15.141Z,100213.16
2022-11-25T15:15:48.256Z,100212.16
2022-11-25T15:18:23.676Z,100187.72
2022-11-25T15:20:59.282Z,100213.50
2022-11-25T15:23:34.944Z,100219.72
2022-11-25T15:26:05.093Z,100162.81
2022-11-25T15:28:38.648Z,100207.06
2022-11-25T15:31:13.101Z,100217.47
2022-11-25T15:33:44.414Z,100220.97
2022-11-25T15:36:13.633Z,100214.50
2022-11-25T15:38:45.002Z,100221.19
2022-11-25T15:41:26.404Z,100204.16
2022-11-25T15:44:00.033Z,100230.38
2022-11-25T15:46:30.106Z,100222.22
2022-11-25T15:49:09.532Z,100257.06
2022-11-25T15:51:43.487Z,100238.63
2022-11-25T15:54:20.734Z,100249.69
2022-11-25T15:56:51.991Z,100207.88
2022-11-25T15:59:47.715Z,100210.50
2022-11-25T16:02:39.304Z,100233.16
2022-11-25T16:05:19.279Z,100216.81
2022-11-25T16:08:21.170Z,100264.09
2022-11-25T16:10:56.704Z,100231.81
2022-11-25T16:13:42.845Z,100269.63
2022-11-25T16:16:33.390Z,100275.91
2022-11-25T16:19:21.369Z,100259.09
2022-11-25T16:22:01.919Z,100276.28
2022-11-25T16:24:51.038Z,100246.53
2022-11-25T16:27:25.316Z,100247.25
2022-11-25T16:29:57.569Z,100274.94
2022-11-25T16:32:28.406Z,100279.19
2022-11-25T16:34:58.361Z,100293.56
2022-11-25T16:37:29.041Z,100283.59
2022-11-25T16:39:58.319Z,100281.22
2022-11-25T16:42:27.523Z,100298.81
2022-11-25T16:44:56.699Z,100313.66
2022-11-25T16:47:27.233Z,100274.06
2022-11-25T16:49:56.557Z,100313.41
2022-11-25T16:52:25.691Z,100323.97
2022-11-25T16:54:58.872Z,100326.00
2022-11-25T16:57:28.029Z,100318.56
2022-11-25T17:00:02.681Z,100332.25
2022-11-25T17:02:37.330Z,100335.50
2022-11-25T17:05:18.414Z,100333.38
2022-11-25T17:07:47.749Z,100306.34
2022-11-25T17:10:18.942Z,100347.97
2022-11-25T17:12:49.744Z,100296.13
2022-11-25T17:15:21.756Z,100340.69
2022-11-25T17:17:51.337Z,100328.19
2022-11-25T17:20:25.217Z,100329.19
2022-11-25T17:22:55.290Z,100343.28
2022-11-25T17:25:33.671Z,100344.91
2022-11-25T17:28:06.388Z,100323.34
2022-11-25T17:30:35.742Z,100344.19
2022-11-25T17:33:19.950Z,100322.34
2022-11-25T17:35:54.082Z,100365.72
2022-11-25T17:38:23.516Z,100305.41
2022-11-25T17:40:54.523Z,100180.25
2022-11-25T17:43:23.850Z,100369.81
2022-11-25T17:45:53.293Z,100341.31
2022-11-25T17:48:22.620Z,100369.03
2022-11-25T17:50:51.806Z,100377.94
2022-11-25T17:53:20.935Z,100265.78
2022-11-25T17:55:50.209Z,100235.16
2022-11-25T17:58:21.123Z,100386.31
2022-11-25T18:00:50.607Z,100355.56
2022-11-25T18:03:20.045Z,100369.59
2022-11-25T18:05:49.262Z,100358.81
2022-11-25T18:08:18.464Z,100245.44
2022-11-25T18:10:48.924Z,100333.94
2022-11-25T18:13:18.548Z,100205.13
2022-11-25T18:15:49.478Z,100423.19
2022-11-25T18:18:22.538Z,100313.31
2022-11-25T18:20:51.719Z,100340.69
2022-11-25T18:23:21.205Z,100359.47
2022-11-25T18:25:50.727Z,100403.16
2022-11-25T18:28:22.475Z,100294.34
2022-11-25T18:30:55.054Z,100226.03
2022-11-25T18:33:24.343Z,100231.88
2022-11-25T18:35:53.511Z,100350.31
2022-11-25T18:38:22.604Z,100468.25
2022-11-25T18:40:54.177Z,100460.88
2022-11-25T18:43:25.600Z,100492.63
2022-11-25T18:45:57.656Z,100263.47
2022-11-25T18:48:28.036Z,100353.94
2022-11-25T18:50:57.898Z,100499.75
2022-11-25T18:53:27.053Z,100487.47
2022-11-25T18:55:56.423Z,100431.94
2022-11-25T18:58:28.459Z,100326.09
2022-11-25T19:01:04.038Z,100221.59
2022-11-25T19:03:33.648Z,100294.56
2022-11-25T19:06:03.697Z,100429.91
2022-11-25T19:08:32.962Z,100519.72
2022-11-25T19:11:02.133Z,100441.72
2022-11-25T19:13:34.797Z,100513.00
2022-11-25T19:16:09.421Z,100322.00
2022-11-25T19:18:39.076Z,100305.38
2022-11-25T19:21:08.666Z,100470.34
2022-11-25T19:23:37.849Z,100420.53
2022-11-25T19:26:12.297Z,100529.69
2022-11-25T19:28:41.526Z,100472.75
2022-11-25T19:31:13.679Z,100363.91
2022-11-25T19:33:45.240Z,100435.13
2022-11-25T19:36:22.859Z,100398.34
2022-11-25T19:38:52.294Z,100409.50
2022-11-25T19:41:21.791Z,100436.88
2022-11-25T19:43:51.177Z,100581.50
2022-11-25T19:46:33.193Z,100452.03
2022-11-25T19:49:07.752Z,100470.88
2022-11-25T19:51:37.213Z,100409.47
2022-11-25T19:54:06.521Z,100614.16
2022-11-25T19:56:37.988Z,100531.13
2022-11-25T19:59:07.166Z,100499.09
2022-11-25T20:01:42.616Z,100602.69
2022-11-25T20:04:20.427Z,100557.75
2022-11-25T20:06:50.703Z,100609.50
2022-11-25T20:09:19.877Z,100508.66
2022-11-25T20:11:54.512Z,100599.34
2022-11-25T20:14:23.712Z,100629.06
2022-11-25T20:16:54.424Z,100583.03
2022-11-25T20:19:23.698Z,100633.03
2022-11-25T20:21:53.013Z,100540.06
2022-11-25T20:24:22.731Z,100411.41
2022-11-25T20:26:53.787Z,100654.19
2022-11-25T20:29:30.040Z,100542.88
2022-11-25T20:32:01.481Z,100522.13
2022-11-25T20:34:36.164Z,100686.25
2022-11-25T20:37:08.067Z,100431.56
2022-11-25T20:39:37.411Z,100636.94
2022-11-25T20:42:07.255Z,100484.41
2022-11-25T20:44:37.632Z,100704.28
2022-11-25T20:47:14.744Z,100678.81
2022-11-25T20:49:44.001Z,100471.94
2022-11-25T20:52:22.033Z,100498.78
2022-11-25T20:54:51.297Z,100577.81
2022-11-25T20:57:20.381Z,100514.94
2022-11-25T20:59:49.479Z,100656.81
2022-11-25T21:02:21.964Z,100558.28
2022-11-25T21:04:51.197Z,100606.50
2022-11-25T21:07:20.444Z,100663.25
2022-11-25T21:09:49.678Z,100743.78
2022-11-25T21:12:19.664Z,100556.06
2022-11-25T21:14:49.260Z,100731.25
2022-11-25T21:17:20.576Z,100528.19
2022-11-25T21:19:49.709Z,100636.47
2022-11-25T21:22:19.218Z,100549.47
2022-11-25T21:24:48.396Z,100661.38
2022-11-25T21:27:20.375Z,100572.47
2022-11-25T21:29:49.653Z,100742.47
2022-11-25T21:32:24.589Z,100749.25
2022-11-25T21:34:53.889Z,100762.44
2022-11-25T21:37:31.475Z,100695.50
2022-11-25T21:40:01.312Z,100771.94
2022-11-25T21:42:33.313Z,100577.69
2022-11-25T21:45:02.652Z,100595.38
2022-11-25T21:47:33.360Z,100698.28
2022-11-25T21:50:03.210Z,100599.38
2022-11-25T21:52:32.407Z,100792.56
2022-11-25T21:55:01.527Z,100833.44
2022-11-25T21:57:31.312Z,100629.81
2022-11-25T22:00:00.687Z,100689.03
2022-11-25T22:02:29.839Z,100770.13
2022-11-25T22:05:01.189Z,100664.78
2022-11-25T22:07:31.132Z,100678.31
2022-11-25T22:10:00.370Z,100680.56
2022-11-25T22:12:34.278Z,100782.59
2022-11-25T22:15:06.517Z,100843.13
2022-11-25T22:17:35.674Z,100615.66
2022-11-25T22:20:16.015Z,100692.75
2022-11-25T22:22:45.347Z,100869.19
2022-11-25T22:25:15.710Z,100856.09
2022-11-25T22:27:45.612Z,100697.63
2022-11-25T22:30:18.396Z,100903.16
2022-11-25T22:32:48.711Z,100722.16
2022-11-25T22:35:21.452Z,100886.63
2022-11-25T22:37:55.159Z,100938.53
2022-11-25T22:40:25.867Z,100758.16
2022-11-25T22:42:58.143Z,100742.94
2022-11-25T22:45:33.940Z,100957.50
2022-11-25T22:48:06.985Z,100947.53
2022-11-25T22:50:38.697Z,100980.66
2022-11-25T22:53:13.942Z,100941.59
2022-11-25T22:55:43.548Z,100954.66
2022-11-25T22:58:13.695Z,100831.78
2022-11-25T23:00:45.734Z,100827.56
2022-11-25T23:03:19.479Z,100976.09
2022-11-25T23:05:52.324Z,100963.09
2022-11-25T23:08:23.583Z,100962.41
2022-11-25T23:10:53.674Z,100781.50
2022-11-25T23:13:23.367Z,100965.75
2022-11-25T23:15:54.824Z,100982.56
2022-11-25T23:18:28.003Z,100834.94
2022-11-25T23:20:59.711Z,100935.19
2022-11-25T23:23:30.676Z,101000.06
2022-11-25T23:26:00.486Z,100877.53
2022-11-25T23:28:29.642Z,100827.38
2022-11-25T23:31:00.578Z,101009.44
2022-11-25T23:33:33.119Z,100953.03
2022-11-25T23:36:08.712Z,100839.16
2022-11-25T23:38:43.304Z,101044.88
2022-11-25T23:41:17.041Z,100753.22
2022-11-25T23:43:46.384Z,100851.94
2022-11-25T23:46:17.397Z,101057.31
2022-11-25T23:48:53.787Z,100891.22
2022-11-25T23:51:25.764Z,101023.53
2022-11-25T23:53:56.202Z,101048.63
2022-11-25T23:56:26.454Z,101094.00
2022-11-25T23:58:55.672Z,101048.44
